createdAt,value
2023-01-12T00:01:54.167Z,30.25
2023-01-12T00:04:21.378Z,32.25
2023-01-12T00:06:48.885Z,29.52
2023-01-12T00:09:15.947Z,30.00
2023-01-12T00:11:43.979Z,28.92
2023-01-12T00:14:11.151Z,35.13
2023-01-12T00:16:38.603Z,31.83
2023-01-12T00:19:13.227Z,30.13
2023-01-12T00:21:56.550Z,31.88
2023-01-12T00:24:24.658Z,30.85
2023-01-12T00:26:53.334Z,38.97
2023-01-12T00:29:21.407Z,34.38
2023-01-12T00:31:48.770Z,30.45
2023-01-12T00:34:16.554Z,33.42
2023-01-12T00:36:45.475Z,34.22
2023-01-12T00:39:13.393Z,35.25
2023-01-12T00:41:59.964Z,33.30
2023-01-12T00:45:02.578Z,31.48
2023-01-12T00:47:29.839Z,31.52
2023-01-12T00:49:57.541Z,36.72
2023-01-12T00:52:30.823Z,33.17
2023-01-12T00:54:59.703Z,32.85
2023-01-12T00:57:28.525Z,33.67
2023-01-12T00:59:58.242Z,34.70
2023-01-12T01:02:28.946Z,32.88
2023-01-12T01:04:56.499Z,34.55
2023-01-12T01:07:24.545Z,34.25
2023-01-12T01:09:51.870Z,37.80
2023-01-12T01:12:19.624Z,32.65
2023-01-12T01:14:47.760Z,35.42
2023-01-12T01:17:15.407Z,34.58
2023-01-12T01:19:43.625Z,34.47
2023-01-12T01:22:12.992Z,34.17
2023-01-12T01:24:41.572Z,33.92
2023-01-12T01:27:09.376Z,35.80
2023-01-12T01:29:36.732Z,36.50
2023-01-12T01:32:04.385Z,35.45
2023-01-12T01:34:31.858Z,35.00
2023-01-12T01:36:59.413Z,32.42
2023-01-12T01:39:26.495Z,35.80
2023-01-12T01:41:53.866Z,34.45
2023-01-12T01:44:29.969Z,34.33
2023-01-12T01:47:11.113Z,34.33
2023-01-12T01:49:44.769Z,36.38
2023-01-12T01:52:34.974Z,33.85
2023-01-12T01:55:19.581Z,33.53
2023-01-12T01:57:53.759Z,35.30
2023-01-12T02:00:21.177Z,33.10
2023-01-12T02:02:48.952Z,35.75
2023-01-12T02:05:20.150Z,31.15
2023-01-12T02:07:49.739Z,30.48
2023-01-12T02:10:18.037Z,32.20
2023-01-12T02:13:04.701Z,30.45
2023-01-12T02:16:03.677Z,31.75
2023-01-12T02:18:43.562Z,32.67
2023-01-12T02:21:16.740Z,30.83
2023-01-12T02:24:06.003Z,33.88
2023-01-12T02:26:49.416Z,34.88
2023-01-12T02:29:55.033Z,32.35
2023-01-12T02:32:39.932Z,28.17
2023-01-12T02:35:40.524Z,37.70
2023-01-12T02:38:47.690Z,32.53
2023-01-12T02:41:45.146Z,37.65
2023-01-12T02:44:31.121Z,32.78
2023-01-12T02:47:00.628Z,35.35
2023-01-12T02:49:31.356Z,33.17
2023-01-12T02:52:03.863Z,27.35
2023-01-12T02:54:33.003Z,29.55
2023-01-12T02:57:07.359Z,34.92
2023-01-12T02:59:40.382Z,31.42
2023-01-12T03:02:18.493Z,35.15
2023-01-12T03:04:45.762Z,32.75
2023-01-12T03:07:29.079Z,30.67
2023-01-12T03:10:06.968Z,30.20
2023-01-12T03:12:37.077Z,35.88
2023-01-12T03:15:08.407Z,35.00
2023-01-12T03:17:49.763Z,32.22
2023-01-12T03:20:20.326Z,33.22
2023-01-12T03:22:51.502Z,31.85
2023-01-12T03:25:20.565Z,34.40
2023-01-12T03:27:54.575Z,31.88
2023-01-12T03:30:25.598Z,31.75
2023-01-12T03:32:53.020Z,33.55
2023-01-12T03:35:26.660Z,31.17
2023-01-12T03:38:04.877Z,31.98
2023-01-12T03:40:45.925Z,32.17
2023-01-12T03:43:17.906Z,34.83
2023-01-12T03:46:04.174Z,35.13
2023-01-12T03:48:38.073Z,32.90
2023-01-12T03:51:12.795Z,32.17
2023-01-12T03:53:43.092Z,33.63
2023-01-12T03:56:12.447Z,34.05
2023-01-12T03:58:40.681Z,35.72
2023-01-12T04:01:07.818Z,35.58
2023-01-12T04:03:35.472Z,37.33
2023-01-12T04:06:02.700Z,32.45
2023-01-12T04:08:30.203Z,33.58
2023-01-12T04:10:57.343Z,33.45
2023-01-12T04:13:24.703Z,40.80
2023-01-12T04:15:51.737Z,39.67
2023-01-12T04:18:19.045Z,36.50
2023-01-12T04:20:47.182Z,35.33
2023-01-12T04:23:14.445Z,38.40
2023-01-12T04:25:41.624Z,39.03
2023-01-12T04:28:08.931Z,36.05
2023-01-12T04:30:36.004Z,37.78
2023-01-12T04:33:08.231Z,39.97
2023-01-12T04:35:35.441Z,36.58
2023-01-12T04:38:07.889Z,38.53
2023-01-12T04:40:34.980Z,40.65
2023-01-12T04:43:06.305Z,39.38
2023-01-12T04:45:40.852Z,41.00
2023-01-12T04:48:11.434Z,44.53
2023-01-12T04:50:39.281Z,42.35
2023-01-12T04:53:09.869Z,40.17
2023-01-12T04:55:38.649Z,43.47
2023-01-12T04:58:06.327Z,42.33
2023-01-12T05:00:33.855Z,44.88
2023-01-12T05:03:02.523Z,46.00
2023-01-12T05:05:31.718Z,44.20
2023-01-12T05:08:19.891Z,44.38
2023-01-12T05:10:54.873Z,43.38
2023-01-12T05:13:23.166Z,48.80
2023-01-12T05:15:50.199Z,46.22
2023-01-12T05:18:17.526Z,46.17
2023-01-12T05:20:44.709Z,47.33
2023-01-12T05:23:12.157Z,43.40
2023-01-12T05:25:39.201Z,55.08
2023-01-12T05:28:06.844Z,45.20
2023-01-12T05:30:33.973Z,52.22
2023-01-12T05:33:01.302Z,52.40
2023-01-12T05:35:28.311Z,46.30
2023-01-12T05:37:56.681Z,47.10
2023-01-12T05:40:23.914Z,57.30
2023-01-12T05:43:10.476Z,49.75
2023-01-12T05:45:37.947Z,50.13
2023-01-12T05:48:05.873Z,57.65
2023-01-12T05:50:33.099Z,52.33
2023-01-12T05:53:10.320Z,59.40
2023-01-12T05:55:38.292Z,62.22
2023-01-12T05:58:05.835Z,58.72
2023-01-12T06:00:32.963Z,58.70
2023-01-12T06:03:02.567Z,54.45
2023-01-12T06:05:29.789Z,54.88
2023-01-12T06:07:57.789Z,63.58
2023-01-12T06:10:24.847Z,56.63
2023-01-12T06:13:18.667Z,50.45
2023-01-12T06:15:45.919Z,51.05
2023-01-12T06:18:13.264Z,54.47
2023-01-12T06:20:40.415Z,49.55
2023-01-12T06:23:07.694Z,49.30
2023-01-12T06:25:34.807Z,56.13
2023-01-12T06:28:02.185Z,50.70
2023-01-12T06:30:29.261Z,52.05
2023-01-12T06:33:00.827Z,60.97
2023-01-12T06:35:27.878Z,51.08
2023-01-12T06:37:58.058Z,51.20
2023-01-12T06:40:25.208Z,51.50
2023-01-12T06:42:52.767Z,54.83
2023-01-12T06:45:19.852Z,53.05
2023-01-12T06:47:52.200Z,70.70
2023-01-12T06:50:19.483Z,64.32
2023-01-12T06:52:46.927Z,64.45
2023-01-12T06:55:14.075Z,64.68
2023-01-12T06:57:41.699Z,51.38
2023-01-12T07:00:11.997Z,59.17
2023-01-12T07:02:39.725Z,55.33
2023-01-12T07:05:07.033Z,66.07
2023-01-12T07:07:34.544Z,56.17
2023-01-12T07:10:01.672Z,64.35
2023-01-12T07:12:29.122Z,69.63
2023-01-12T07:14:58.915Z,71.55
2023-01-12T07:17:26.199Z,69.30
2023-01-12T07:19:53.245Z,65.93
2023-01-12T07:22:20.517Z,59.22
2023-01-12T07:24:47.527Z,58.97
2023-01-12T07:27:15.043Z,64.63
2023-01-12T07:29:42.152Z,52.38
2023-01-12T07:32:09.485Z,60.10
2023-01-12T07:34:36.473Z,69.35
2023-01-12T07:37:03.826Z,62.75
2023-01-12T07:39:30.867Z,61.25
2023-01-12T07:42:16.963Z,60.67
2023-01-12T07:44:44.031Z,46.75
2023-01-12T07:47:11.359Z,47.53
2023-01-12T07:49:38.427Z,44.83
2023-01-12T07:52:05.925Z,56.38
2023-01-12T07:54:36.059Z,54.30
2023-01-12T07:57:03.982Z,42.40
2023-01-12T07:59:30.990Z,46.70
2023-01-12T08:01:58.379Z,65.55
2023-01-12T08:04:25.725Z,43.30
2023-01-12T08:06:53.326Z,45.63
2023-01-12T08:09:20.696Z,47.95
2023-01-12T08:11:48.079Z,48.50
2023-01-12T08:14:37.352Z,73.43
2023-01-12T08:17:09.914Z,80.70
2023-01-12T08:19:43.070Z,41.83
2023-01-12T08:22:16.550Z,60.83
2023-01-12T08:24:52.301Z,45.03
2023-01-12T08:27:23.263Z,60.47
2023-01-12T08:29:54.036Z,66.07
2023-01-12T08:32:21.567Z,61.40
2023-01-12T08:34:52.179Z,39.35
2023-01-12T08:37:23.074Z,39.70
2023-01-12T08:39:51.344Z,50.25
2023-01-12T08:42:20.307Z,48.25
2023-01-12T08:44:47.419Z,114.63
2023-01-12T08:47:27.118Z,39.72
2023-01-12T08:49:54.967Z,41.97
2023-01-12T08:52:25.218Z,37.35
2023-01-12T08:54:52.553Z,41.95
2023-01-12T08:57:19.955Z,78.60
2023-01-12T08:59:47.150Z,42.05
2023-01-12T09:02:16.062Z,45.10
2023-01-12T09:04:43.421Z,35.80
2023-01-12T09:07:11.722Z,34.63
2023-01-12T09:09:39.007Z,36.85
2023-01-12T09:12:08.802Z,35.00
2023-01-12T09:14:38.977Z,29.45
2023-01-12T09:17:07.553Z,38.65
2023-01-12T09:19:34.678Z,34.08
2023-01-12T09:22:02.102Z,35.00
2023-01-12T09:24:29.228Z,34.72
2023-01-12T09:26:56.649Z,30.90
2023-01-12T09:29:23.813Z,27.45
2023-01-12T09:31:51.251Z,28.55
2023-01-12T09:34:18.379Z,27.77
2023-01-12T09:36:46.097Z,29.23
2023-01-12T09:39:26.885Z,27.48
2023-01-12T09:42:15.225Z,32.17
2023-01-12T09:47:49.382Z,32.97
2023-01-12T09:50:28.294Z,30.85
2023-01-12T09:53:18.567Z,29.80
2023-01-12T09:56:10.075Z,32.25
2023-01-12T09:59:03.993Z,27.55
2023-01-12T10:01:31.406Z,29.05
2023-01-12T10:04:01.282Z,26.30
2023-01-12T10:06:29.031Z,31.27
2023-01-12T10:09:00.562Z,31.02
2023-01-12T10:11:52.688Z,38.28
2023-01-12T10:14:34.400Z,28.33
2023-01-12T10:17:19.882Z,39.17
2023-01-12T10:20:12.348Z,27.52
2023-01-12T10:22:46.184Z,29.90
2023-01-12T10:25:23.408Z,29.30
2023-01-12T10:30:32.272Z,23.92
2023-01-12T10:33:09.048Z,26.70
2023-01-12T10:35:36.671Z,25.75
2023-01-12T10:38:19.153Z,24.35
2023-01-12T10:41:17.924Z,28.17
2023-01-12T10:44:07.296Z,22.83
2023-01-12T10:46:35.976Z,25.90
2023-01-12T10:49:23.132Z,28.67
2023-01-12T10:54:27.914Z,24.13
2023-01-12T10:57:01.618Z,24.63
2023-01-12T10:59:39.990Z,23.23
2023-01-12T11:02:11.853Z,24.73
2023-01-12T11:04:42.124Z,22.33
2023-01-12T11:07:29.070Z,24.88
2023-01-12T11:10:19.187Z,26.50
2023-01-12T11:13:00.136Z,19.95
2023-01-12T11:15:29.005Z,20.60
2023-01-12T11:18:05.166Z,21.75
2023-01-12T11:20:47.825Z,17.20
2023-01-12T11:23:25.972Z,21.17
2023-01-12T11:25:54.099Z,17.42
2023-01-12T11:28:21.392Z,18.65
2023-01-12T11:31:20.452Z,18.45
2023-01-12T11:34:02.779Z,18.55
2023-01-12T11:36:54.712Z,18.33
2023-01-12T11:39:24.430Z,17.75
2023-01-12T11:42:15.458Z,20.88
2023-01-12T11:44:45.841Z,14.98
2023-01-12T11:47:24.995Z,16.80
2023-01-12T11:50:18.170Z,15.07
2023-01-12T11:52:45.802Z,14.13
2023-01-12T11:55:20.976Z,20.70
2023-01-12T11:57:47.938Z,16.35
2023-01-12T12:00:41.387Z,16.10
2023-01-12T12:03:36.282Z,17.50
2023-01-12T12:06:27.518Z,18.35
2023-01-12T12:09:27.612Z,15.30
2023-01-12T12:12:02.329Z,15.18
2023-01-12T12:15:11.765Z,13.77
2023-01-12T12:17:50.448Z,12.63
2023-01-12T12:20:23.687Z,13.88
2023-01-12T12:23:10.678Z,14.02
2023-01-12T12:25:44.830Z,16.92
2023-01-12T12:28:36.999Z,15.68
2023-01-12T12:31:21.061Z,14.30
2023-01-12T12:33:54.597Z,16.20
2023-01-12T12:36:30.064Z,15.60
2023-01-12T12:39:34.480Z,14.82
2023-01-12T12:42:35.210Z,13.40
2023-01-12T12:45:26.332Z,12.80
2023-01-12T12:47:59.335Z,15.77
2023-01-12T12:50:45.236Z,17.70
2023-01-12T12:53:24.960Z,13.07
2023-01-12T12:55:54.309Z,16.80
2023-01-12T12:58:21.397Z,14.63
2023-01-12T13:00:50.753Z,13.13
2023-01-12T13:03:39.833Z,13.68
2023-01-12T13:06:30.194Z,14.85
2023-01-12T13:09:04.638Z,13.20
2023-01-12T13:11:53.707Z,15.73
2023-01-12T13:14:34.777Z,12.85
2023-01-12T13:17:06.212Z,16.10
2023-01-12T13:19:43.250Z,13.57
2023-01-12T13:22:33.699Z,13.43
2023-01-12T13:25:24.305Z,12.77
2023-01-12T13:27:52.423Z,15.68
2023-01-12T13:30:28.635Z,12.23
2023-01-12T13:33:17.145Z,11.20
2023-01-12T13:35:45.114Z,12.65
2023-01-12T13:38:21.498Z,11.90
2023-01-12T13:40:55.846Z,12.85
2023-01-12T13:43:32.499Z,11.70
2023-01-12T13:46:06.250Z,9.98
2023-01-12T13:48:35.886Z,13.52
2023-01-12T13:51:12.775Z,13.10
2023-01-12T13:53:40.394Z,11.63
2023-01-12T13:56:18.626Z,11.13
2023-01-12T13:58:46.694Z,10.43
2023-01-12T14:01:17.792Z,14.18
2023-01-12T14:04:01.410Z,12.63
2023-01-12T14:06:48.261Z,15.43
2023-01-12T14:09:34.692Z,20.25
2023-01-12T14:12:27.971Z,17.48
2023-01-12T14:15:32.879Z,19.90
2023-01-12T14:18:09.539Z,19.38
2023-01-12T14:23:27.596Z,15.98
2023-01-12T14:26:07.047Z,23.95
2023-01-12T14:28:35.264Z,17.40
2023-01-12T14:31:04.620Z,15.70
2023-01-12T14:33:37.684Z,13.30
2023-01-12T14:36:12.137Z,15.27
2023-01-12T14:38:44.166Z,16.45
2023-01-12T14:41:36.833Z,13.05
2023-01-12T14:44:23.152Z,14.25
2023-01-12T14:46:53.531Z,15.93
2023-01-12T14:49:20.904Z,17.15
2023-01-12T14:52:00.228Z,14.25
2023-01-12T14:54:29.934Z,14.88
2023-01-12T14:57:18.082Z,13.20
2023-01-12T14:59:48.277Z,16.65
2023-01-12T15:02:18.372Z,17.05
2023-01-12T15:04:57.629Z,19.42
2023-01-12T15:07:29.163Z,19.80
2023-01-12T15:10:01.352Z,20.60
2023-01-12T15:12:28.673Z,21.02
2023-01-12T15:15:52.299Z,20.73
2023-01-12T15:18:38.788Z,23.42
2023-01-12T15:21:24.792Z,22.80
2023-01-12T15:24:11.053Z,28.98
2023-01-12T15:26:38.197Z,27.42
2023-01-12T15:29:05.503Z,43.28
2023-01-12T15:31:37.530Z,36.13
2023-01-12T15:34:06.392Z,46.65
2023-01-12T15:36:33.494Z,28.23
2023-01-12T15:39:00.843Z,30.48
2023-01-12T15:41:49.260Z,34.60
2023-01-12T15:44:21.867Z,24.30
2023-01-12T15:46:49.026Z,19.42
2023-01-12T15:49:17.037Z,24.75
2023-01-12T15:51:47.292Z,28.98
2023-01-12T15:54:18.512Z,28.27
2023-01-12T15:56:45.969Z,31.55
2023-01-12T15:59:13.504Z,30.75
2023-01-12T16:01:45.581Z,17.77
2023-01-12T16:04:41.416Z,21.55
2023-01-12T16:07:04.045Z,21.45
2023-01-12T16:09:31.354Z,27.70
2023-01-12T16:11:58.459Z,21.00
2023-01-12T16:14:26.200Z,19.23
2023-01-12T16:16:55.674Z,25.55
2023-01-12T16:19:23.874Z,19.55
2023-01-12T16:21:54.003Z,22.42
2023-01-12T16:24:21.628Z,21.27
2023-01-12T16:26:48.747Z,20.50
2023-01-12T16:29:16.542Z,21.52
2023-01-12T16:31:44.291Z,21.73
2023-01-12T16:34:11.827Z,20.35
2023-01-12T16:36:38.872Z,19.30
2023-01-12T16:39:06.205Z,21.58
2023-01-12T16:41:33.370Z,19.92
2023-01-12T16:44:00.709Z,20.48
2023-01-12T16:46:27.800Z,31.98
2023-01-12T16:48:56.326Z,21.67
2023-01-12T16:51:24.574Z,23.00
2023-01-12T16:53:55.193Z,22.92
2023-01-12T16:56:22.276Z,23.42
2023-01-12T16:58:49.598Z,20.38
2023-01-12T17:01:21.771Z,18.17
2023-01-12T17:03:50.991Z,23.88
2023-01-12T17:06:20.966Z,21.52
2023-01-12T17:08:48.653Z,26.88
2023-01-12T17:11:21.051Z,34.75
2023-01-12T17:13:57.142Z,21.55
2023-01-12T17:16:26.388Z,24.80
2023-01-12T17:18:54.445Z,25.08
2023-01-12T17:21:22.235Z,24.42
2023-01-12T17:23:49.995Z,23.33
2023-01-12T17:26:18.448Z,17.45
2023-01-12T17:28:46.934Z,26.23
2023-01-12T17:31:17.055Z,29.75
2023-01-12T17:33:44.744Z,21.13
2023-01-12T17:36:13.280Z,25.20
2023-01-12T17:38:40.978Z,20.33
2023-01-12T17:41:34.290Z,23.20
2023-01-12T17:44:04.123Z,21.85
2023-01-12T17:46:32.240Z,36.03
2023-01-12T17:49:02.192Z,27.92
2023-01-12T17:51:29.608Z,29.20
2023-01-12T17:53:58.668Z,24.77
2023-01-12T17:56:27.301Z,26.35
2023-01-12T17:58:55.600Z,22.73
2023-01-12T18:01:24.794Z,21.80
2023-01-12T18:03:52.487Z,29.02
2023-01-12T18:06:26.482Z,27.33
2023-01-12T18:08:56.567Z,24.58
2023-01-12T18:11:24.219Z,22.80
2023-01-12T18:13:51.634Z,25.50
2023-01-12T18:16:18.954Z,23.63
2023-01-12T18:18:46.397Z,28.75
2023-01-12T18:21:20.985Z,23.27
2023-01-12T18:23:50.494Z,26.48
2023-01-12T18:26:27.879Z,26.45
2023-01-12T18:28:57.188Z,27.90
2023-01-12T18:31:27.018Z,29.60
2023-01-12T18:34:05.117Z,25.30
2023-01-12T18:36:34.552Z,27.83
2023-01-12T18:39:02.266Z,33.83
2023-01-12T18:41:47.851Z,25.08
2023-01-12T18:44:15.211Z,26.85
2023-01-12T18:47:02.639Z,28.52
2023-01-12T18:49:33.383Z,34.33
2023-01-12T18:52:19.967Z,30.80
2023-01-12T18:54:48.123Z,35.45
2023-01-12T18:57:18.831Z,28.73
2023-01-12T18:59:51.539Z,32.22
2023-01-12T19:02:19.631Z,26.52
2023-01-12T19:04:50.308Z,26.42
2023-01-12T19:07:27.836Z,32.58
2023-01-12T19:09:56.324Z,29.65
2023-01-12T19:12:29.643Z,30.73
2023-01-12T19:15:15.687Z,27.63
2023-01-12T19:17:42.731Z,26.95
2023-01-12T19:20:15.919Z,27.35
2023-01-12T19:23:01.959Z,29.02
2023-01-12T19:25:48.483Z,33.78
2023-01-12T19:28:35.233Z,30.20
2023-01-12T19:31:15.064Z,27.77
2023-01-12T19:33:42.800Z,32.13
2023-01-12T19:36:14.163Z,24.83
2023-01-12T19:38:44.017Z,28.45
2023-01-12T19:41:14.155Z,28.17
2023-01-12T19:43:45.366Z,24.10
2023-01-12T19:46:13.269Z,27.42
2023-01-12T19:48:40.442Z,28.63
2023-01-12T19:51:11.002Z,33.58
2023-01-12T19:53:40.136Z,28.98
2023-01-12T19:56:11.872Z,28.58
2023-01-12T19:58:39.411Z,30.77
2023-01-12T20:01:07.505Z,32.13
2023-01-12T20:03:35.881Z,31.58
2023-01-12T20:06:07.654Z,33.50
2023-01-12T20:08:35.184Z,36.55
2023-01-12T20:11:05.089Z,28.98
2023-01-12T20:13:34.425Z,28.10
2023-01-12T20:16:09.959Z,31.77
2023-01-12T20:18:37.447Z,29.55
2023-01-12T20:21:11.767Z,30.90
2023-01-12T20:23:39.137Z,29.85
2023-01-12T20:26:08.162Z,29.27
2023-01-12T20:28:35.828Z,28.90
2023-01-12T20:31:13.074Z,33.13
2023-01-12T20:33:40.664Z,38.80
2023-01-12T20:36:13.110Z,29.40
2023-01-12T20:38:41.111Z,26.27
2023-01-12T20:41:10.128Z,25.35
2023-01-12T20:43:38.772Z,25.23
2023-01-12T20:46:10.621Z,29.48
2023-01-12T20:48:44.938Z,24.33
2023-01-12T20:51:15.453Z,23.52
2023-01-12T20:53:43.324Z,22.35
2023-01-12T20:56:10.825Z,22.63
2023-01-12T20:58:38.184Z,25.25
2023-01-12T21:01:15.352Z,22.17
2023-01-12T21:03:44.082Z,26.20
2023-01-12T21:06:17.842Z,20.88
2023-01-12T21:08:46.793Z,21.05
2023-01-12T21:11:16.784Z,24.08
2023-01-12T21:13:44.531Z,23.10
2023-01-12T21:16:14.972Z,29.77
2023-01-12T21:18:42.943Z,25.83
2023-01-12T21:21:10.981Z,25.52
2023-01-12T21:23:38.357Z,23.35
2023-01-12T21:26:08.930Z,20.23
2023-01-12T21:28:40.329Z,27.33
2023-01-12T21:31:10.639Z,24.75
2023-01-12T21:33:38.444Z,24.58
2023-01-12T21:36:05.906Z,23.13
2023-01-12T21:38:36.021Z,20.98
2023-01-12T21:41:05.555Z,24.13
2023-01-12T21:43:33.692Z,22.00
2023-01-12T21:46:10.138Z,22.92
2023-01-12T21:48:37.658Z,25.00
2023-01-12T21:51:07.450Z,21.35
2023-01-12T21:53:35.477Z,22.13
2023-01-12T21:56:04.853Z,24.73
2023-01-12T21:58:34.960Z,23.73
2023-01-12T22:01:08.764Z,17.23
2023-01-12T22:03:36.217Z,21.33
2023-01-12T22:06:12.349Z,19.50
2023-01-12T22:08:41.168Z,22.08
2023-01-12T22:11:10.898Z,23.25
2023-01-12T22:13:39.780Z,21.77
2023-01-12T22:16:09.682Z,20.35
2023-01-12T22:18:37.556Z,18.17
2023-01-12T22:21:07.725Z,20.38
2023-01-12T22:23:38.709Z,19.10
2023-01-12T22:26:11.559Z,21.75
2023-01-12T22:28:41.390Z,18.08
2023-01-12T22:31:13.996Z,19.58
2023-01-12T22:34:00.758Z,22.10
2023-01-12T22:36:28.258Z,19.08
2023-01-12T22:38:55.630Z,16.20
2023-01-12T22:41:24.745Z,20.25
2023-01-12T22:43:52.861Z,22.52
2023-01-12T22:46:27.533Z,27.63
2023-01-12T22:48:57.561Z,20.42
2023-01-12T22:51:26.351Z,16.98
2023-01-12T22:53:55.555Z,20.25
2023-01-12T22:56:23.273Z,17.65
2023-01-12T22:58:52.581Z,16.52
2023-01-12T23:01:21.119Z,21.50
2023-01-12T23:03:52.177Z,16.67
2023-01-12T23:06:19.511Z,21.75
2023-01-12T23:08:47.019Z,18.48
2023-01-12T23:11:22.973Z,21.23
2023-01-12T23:13:51.143Z,19.75
2023-01-12T23:16:19.270Z,21.25
2023-01-12T23:18:47.620Z,19.45
2023-01-12T23:21:17.631Z,16.65
2023-01-12T23:23:50.375Z,17.30
2023-01-12T23:26:20.668Z,18.25
2023-01-12T23:28:50.990Z,16.33
2023-01-12T23:31:21.441Z,19.35
2023-01-12T23:33:49.088Z,16.63
2023-01-12T23:36:19.390Z,17.55
2023-01-12T23:38:46.865Z,16.25
2023-01-12T23:41:19.529Z,16.33
2023-01-12T23:43:49.110Z,20.80
2023-01-12T23:46:23.485Z,17.73
2023-01-12T23:48:52.553Z,22.60
2023-01-12T23:51:20.149Z,19.13
2023-01-12T23:53:48.870Z,20.33
2023-01-12T23:56:16.826Z,18.67
2023-01-12T23:58:44.871Z,16.80
